Fort Huachuca, AZ (85613)

3:19 AM MST on September 30, 2014 (GMT -0700)
Town and Country | Change Station
CLOSE
Current Station
Personal Weather Station
Location: Sierra Vista, AZ
Elevation: 4633 ft
Nearby Weather Stations

Elev 4633 ft 31.53 °N, 110.28 °W | Updated 11 minutes ago

Partly Cloudy
Partly Cloudy
58.1 °F
Feels Like 58.1 °F
N
2.2
Wind Variable Wind from SSW

Today
High -- | Low -- °F
--% Chance of Precip.
Yesterday
High -- | Low -- °F
Precip. -- in
6:14 AM 6:07 PM
Waxing Crescent, 35% visible
Pressure 29.85 in
Visibility 10.0 miles
Clouds Few 25000 ft
Dew Point 54 °F
Humidity 87%
Rainfall 0.00 in
Snow Depth 1 in , 1 in , 0 in
UV 0 out of 12
Pollen 5.80 out of 12
Air Quality Not available.
Flu Activity Not available.
METAR KFHU 300955Z 16005KT 10SM FEW250 16/13 A3002 RMK SLP107

More Conditions Fewer Conditions

Pressure 29.85 in
Visibility 10.0 miles
Clouds Few 25000 ft
Dew Point 54 °F
Humidity 87%
Rainfall 0.00 in
Snow Depth 1 in , 1 in , 0 in
UV 0 out of 12
Pollen 5.80 out of 12
Air Quality Not available.
Flu Activity Not available.
METAR KFHU 300955Z 16005KT 10SM FEW250 16/13 A3002 RMK SLP107

More Conditions Fewer Conditions

10-Day Weather Forecast

Almanac

Astronomy

Sep. 30, 2014 Rise Set
Actual Time 6:14 AM MST 6:07 PM MST
Civil Twilight 5:50 AM MST 6:31 PM MST
Nautical Twilight 5:22 AM MST 6:59 PM MST
Astronomical Twilight 4:53 AM MST 7:28 PM MST
Moon 12:09 PM MST 10:57 PM MST
Length of Visible Light 12h 41m
Length of Day
11h 52m
Tomorrow will be 1m 53s shorter.
Waxing Crescent, 35% of the Moon is Illuminated
Today
Waxing Crescent
Oct 1
First Quarter
Oct 8
Full
Oct 15
Last Quarter
Oct 23
New

Today's Extremes

State Highs State Lows

Community

WunderPhotos

Upload Photos

1,757,608 photos uploaded!

WunderBlogs® & News

Nearby

Snow Depth

Station Depth Elevation
Promontory 1 in 7930 ft
Maverick Fork 1 in 9200 ft
Mormon Mountain 1 in 7500 ft
Snowslide Canyon 1 in 9730 ft
Happy Jack 0 in 7630 ft

Earthquake Activity

City Distance Mag. Time & Date
No recent earthquake activity has been reported nearby.
Minimum magnitude displayed is 2.5.

Coastal Water Temperatures

Place Temperature
No Stations Reporting

Nearby Weather Stations